sensor_id;sensor_type;location;lat;lon;timestamp;P1;durP1;ratioP1;P2;durP2;ratioP2
64684;SDS011;51109;47.414;18.954;2022-08-19T00:01:37;9.20;;;7.25;;
64684;SDS011;51109;47.414;18.954;2022-08-19T00:04:06;7.95;;;7.15;;
64684;SDS011;51109;47.414;18.954;2022-08-19T00:06:35;10.30;;;7.10;;
64684;SDS011;51109;47.414;18.954;2022-08-19T00:09:03;13.35;;;7.68;;
64684;SDS011;51109;47.414;18.954;2022-08-19T00:11:31;11.05;;;7.28;;
64684;SDS011;51109;47.414;18.954;2022-08-19T00:13:57;8.40;;;7.47;;
64684;SDS011;51109;47.414;18.954;2022-08-19T00:16:24;8.75;;;6.97;;
64684;SDS011;51109;47.414;18.954;2022-08-19T00:18:50;9.07;;;7.15;;
64684;SDS011;51109;47.414;18.954;2022-08-19T00:21:16;8.52;;;7.72;;
64684;SDS011;51109;47.414;18.954;2022-08-19T00:23:43;11.25;;;7.72;;
64684;SDS011;51109;47.414;18.954;2022-08-19T00:26:09;9.95;;;8.45;;
64684;SDS011;51109;47.414;18.954;2022-08-19T00:28:36;26.38;;;9.13;;
64684;SDS011;51109;47.414;18.954;2022-08-19T00:31:03;8.13;;;7.30;;
64684;SDS011;51109;47.414;18.954;2022-08-19T00:33:30;10.52;;;7.70;;
64684;SDS011;51109;47.414;18.954;2022-08-19T00:35:59;8.68;;;6.85;;
64684;SDS011;51109;47.414;18.954;2022-08-19T00:38:26;8.68;;;7.10;;
64684;SDS011;51109;47.414;18.954;2022-08-19T00:40:52;8.23;;;7.38;;
64684;SDS011;51109;47.414;18.954;2022-08-19T00:43:21;8.45;;;7.40;;
64684;SDS011;51109;47.414;18.954;2022-08-19T00:45:48;9.85;;;7.55;;
64684;SDS011;51109;47.414;18.954;2022-08-19T00:48:16;8.85;;;7.03;;
64684;SDS011;51109;47.414;18.954;2022-08-19T00:50:43;10.82;;;7.90;;
64684;SDS011;51109;47.414;18.954;2022-08-19T00:53:11;8.20;;;7.40;;
64684;SDS011;51109;47.414;18.954;2022-08-19T00:55:44;10.93;;;8.05;;
64684;SDS011;51109;47.414;18.954;2022-08-19T00:58:15;9.60;;;7.63;;
64684;SDS011;51109;47.414;18.954;2022-08-19T01:00:44;10.00;;;7.93;;
64684;SDS011;51109;47.414;18.954;2022-08-19T01:03:13;9.18;;;7.35;;
64684;SDS011;51109;47.414;18.954;2022-08-19T01:05:41;9.60;;;7.00;;
64684;SDS011;51109;47.414;18.954;2022-08-19T01:08:08;7.57;;;6.80;;
64684;SDS011;51109;47.414;18.954;2022-08-19T01:10:42;11.25;;;7.70;;
64684;SDS011;51109;47.414;18.954;2022-08-19T01:13:12;11.00;;;7.32;;
64684;SDS011;51109;47.414;18.954;2022-08-19T01:15:49;11.95;;;7.55;;
64684;SDS011;51109;47.414;18.954;2022-08-19T01:18:27;11.73;;;8.13;;
64684;SDS011;51109;47.414;18.954;2022-08-19T01:20:54;9.57;;;6.88;;
64684;SDS011;51109;47.414;18.954;2022-08-19T01:23:23;9.23;;;7.47;;
64684;SDS011;51109;47.414;18.954;2022-08-19T01:26:11;11.38;;;8.05;;
64684;SDS011;51109;47.414;18.954;2022-08-19T01:28:40;9.37;;;7.30;;
64684;SDS011;51109;47.414;18.954;2022-08-19T01:31:07;10.10;;;7.60;;
64684;SDS011;51109;47.414;18.954;2022-08-19T01:33:36;12.98;;;7.50;;
64684;SDS011;51109;47.414;18.954;2022-08-19T01:36:04;7.70;;;7.00;;
64684;SDS011;51109;47.414;18.954;2022-08-19T01:38:35;8.77;;;7.30;;
64684;SDS011;51109;47.414;18.954;2022-08-19T01:41:03;10.40;;;7.38;;
64684;SDS011;51109;47.414;18.954;2022-08-19T01:43:29;10.95;;;6.93;;
64684;SDS011;51109;47.414;18.954;2022-08-19T01:45:55;10.63;;;8.25;;
64684;SDS011;51109;47.414;18.954;2022-08-19T01:48:21;9.40;;;6.97;;
64684;SDS011;51109;47.414;18.954;2022-08-19T01:50:47;11.70;;;7.75;;
64684;SDS011;51109;47.414;18.954;2022-08-19T01:53:13;11.38;;;7.53;;
64684;SDS011;51109;47.414;18.954;2022-08-19T01:55:41;8.35;;;7.55;;
64684;SDS011;51109;47.414;18.954;2022-08-19T01:58:12;11.10;;;7.55;;
64684;SDS011;51109;47.414;18.954;2022-08-19T02:00:44;8.82;;;7.68;;
64684;SDS011;51109;47.414;18.954;2022-08-19T02:03:10;10.48;;;7.43;;
64684;SDS011;51109;47.414;18.954;2022-08-19T02:05:43;12.65;;;6.85;;
64684;SDS011;51109;47.414;18.954;2022-08-19T02:08:11;8.07;;;7.28;;
64684;SDS011;51109;47.414;18.954;2022-08-19T02:10:39;9.15;;;6.97;;
64684;SDS011;51109;47.414;18.954;2022-08-19T02:13:08;11.30;;;7.45;;
64684;SDS011;51109;47.414;18.954;2022-08-19T02:15:34;10.93;;;7.80;;
64684;SDS011;51109;47.414;18.954;2022-08-19T02:18:01;10.13;;;7.32;;
64684;SDS011;51109;47.414;18.954;2022-08-19T02:20:27;8.15;;;7.35;;
64684;SDS011;51109;47.414;18.954;2022-08-19T02:22:52;11.00;;;7.78;;
64684;SDS011;51109;47.414;18.954;2022-08-19T02:25:18;11.10;;;8.13;;
64684;SDS011;51109;47.414;18.954;2022-08-19T02:27:45;8.98;;;7.80;;
64684;SDS011;51109;47.414;18.954;2022-08-19T02:30:12;11.05;;;7.88;;
64684;SDS011;51109;47.414;18.954;2022-08-19T02:32:41;10.18;;;7.20;;
64684;SDS011;51109;47.414;18.954;2022-08-19T02:35:08;10.85;;;7.78;;
64684;SDS011;51109;47.414;18.954;2022-08-19T02:37:34;14.35;;;7.88;;
64684;SDS011;51109;47.414;18.954;2022-08-19T02:40:18;10.35;;;7.97;;
64684;SDS011;51109;47.414;18.954;2022-08-19T02:42:44;10.48;;;7.28;;
64684;SDS011;51109;47.414;18.954;2022-08-19T02:45:11;9.90;;;8.05;;
64684;SDS011;51109;47.414;18.954;2022-08-19T02:47:38;9.68;;;7.53;;
64684;SDS011;51109;47.414;18.954;2022-08-19T02:50:04;7.68;;;6.88;;
64684;SDS011;51109;47.414;18.954;2022-08-19T02:52:31;10.68;;;6.78;;
64684;SDS011;51109;47.414;18.954;2022-08-19T02:54:58;8.55;;;7.63;;
64684;SDS011;51109;47.414;18.954;2022-08-19T02:57:25;7.80;;;6.85;;
64684;SDS011;51109;47.414;18.954;2022-08-19T02:59:51;13.48;;;7.45;;
64684;SDS011;51109;47.414;18.954;2022-08-19T03:02:17;7.47;;;6.32;;
64684;SDS011;51109;47.414;18.954;2022-08-19T03:04:44;9.60;;;7.43;;
64684;SDS011;51109;47.414;18.954;2022-08-19T03:07:12;9.73;;;7.03;;
64684;SDS011;51109;47.414;18.954;2022-08-19T03:09:39;11.93;;;7.28;;
64684;SDS011;51109;47.414;18.954;2022-08-19T03:12:07;11.02;;;6.95;;
64684;SDS011;51109;47.414;18.954;2022-08-19T03:14:34;7.75;;;6.95;;
64684;SDS011;51109;47.414;18.954;2022-08-19T03:17:01;8.68;;;7.35;;
64684;SDS011;51109;47.414;18.954;2022-08-19T03:19:28;10.27;;;7.13;;
64684;SDS011;51109;47.414;18.954;2022-08-19T03:21:54;8.93;;;6.97;;
64684;SDS011;51109;47.414;18.954;2022-08-19T03:24:20;9.38;;;7.20;;
64684;SDS011;51109;47.414;18.954;2022-08-19T03:26:51;7.80;;;6.57;;
64684;SDS011;51109;47.414;18.954;2022-08-19T03:29:22;9.93;;;7.20;;
64684;SDS011;51109;47.414;18.954;2022-08-19T03:31:49;13.00;;;7.93;;
64684;SDS011;51109;47.414;18.954;2022-08-19T03:34:35;8.73;;;7.35;;
64684;SDS011;51109;47.414;18.954;2022-08-19T03:37:03;8.55;;;6.95;;
64684;SDS011;51109;47.414;18.954;2022-08-19T03:39:32;8.25;;;7.43;;
64684;SDS011;51109;47.414;18.954;2022-08-19T03:41:59;9.35;;;7.45;;
64684;SDS011;51109;47.414;18.954;2022-08-19T03:44:28;8.93;;;7.75;;
64684;SDS011;51109;47.414;18.954;2022-08-19T03:46:57;9.85;;;7.40;;
64684;SDS011;51109;47.414;18.954;2022-08-19T03:49:25;10.43;;;7.38;;
64684;SDS011;51109;47.414;18.954;2022-08-19T03:51:53;9.32;;;7.57;;
64684;SDS011;51109;47.414;18.954;2022-08-19T03:54:21;8.18;;;7.38;;
64684;SDS011;51109;47.414;18.954;2022-08-19T03:56:49;14.70;;;8.07;;
64684;SDS011;51109;47.414;18.954;2022-08-19T03:59:18;15.35;;;7.78;;
64684;SDS011;51109;47.414;18.954;2022-08-19T04:01:56;11.73;;;7.60;;
64684;SDS011;51109;47.414;18.954;2022-08-19T04:04:24;9.85;;;7.50;;
64684;SDS011;51109;47.414;18.954;2022-08-19T04:06:51;10.95;;;7.57;;
64684;SDS011;51109;47.414;18.954;2022-08-19T04:09:18;8.45;;;7.25;;
64684;SDS011;51109;47.414;18.954;2022-08-19T04:11:49;8.85;;;7.53;;
64684;SDS011;51109;47.414;18.954;2022-08-19T04:14:19;13.60;;;8.18;;
64684;SDS011;51109;47.414;18.954;2022-08-19T04:16:47;10.68;;;7.97;;
64684;SDS011;51109;47.414;18.954;2022-08-19T04:19:15;10.05;;;7.68;;
64684;SDS011;51109;47.414;18.954;2022-08-19T04:21:46;13.10;;;8.32;;
64684;SDS011;51109;47.414;18.954;2022-08-19T04:24:14;15.17;;;7.87;;
64684;SDS011;51109;47.414;18.954;2022-08-19T04:26:40;9.38;;;7.30;;
64684;SDS011;51109;47.414;18.954;2022-08-19T04:29:08;11.15;;;7.22;;
64684;SDS011;51109;47.414;18.954;2022-08-19T04:31:36;9.45;;;8.18;;
64684;SDS011;51109;47.414;18.954;2022-08-19T04:34:05;10.43;;;7.70;;
64684;SDS011;51109;47.414;18.954;2022-08-19T04:36:34;9.98;;;7.75;;
64684;SDS011;51109;47.414;18.954;2022-08-19T04:39:05;10.45;;;8.23;;
64684;SDS011;51109;47.414;18.954;2022-08-19T04:41:33;10.88;;;8.02;;
64684;SDS011;51109;47.414;18.954;2022-08-19T04:44:18;14.35;;;8.13;;
64684;SDS011;51109;47.414;18.954;2022-08-19T04:46:45;11.85;;;8.05;;
64684;SDS011;51109;47.414;18.954;2022-08-19T04:49:14;14.77;;;7.95;;
64684;SDS011;51109;47.414;18.954;2022-08-19T04:51:42;9.73;;;7.57;;
64684;SDS011;51109;47.414;18.954;2022-08-19T04:54:10;8.75;;;7.80;;
64684;SDS011;51109;47.414;18.954;2022-08-19T04:56:38;10.00;;;7.68;;
64684;SDS011;51109;47.414;18.954;2022-08-19T04:59:04;8.85;;;7.53;;
64684;SDS011;51109;47.414;18.954;2022-08-19T05:01:31;9.32;;;8.10;;
64684;SDS011;51109;47.414;18.954;2022-08-19T05:03:58;10.68;;;8.05;;
64684;SDS011;51109;47.414;18.954;2022-08-19T05:06:26;11.48;;;7.60;;
64684;SDS011;51109;47.414;18.954;2022-08-19T05:08:54;7.85;;;7.05;;
64684;SDS011;51109;47.414;18.954;2022-08-19T05:11:24;11.38;;;7.50;;
64684;SDS011;51109;47.414;18.954;2022-08-19T05:13:51;11.82;;;7.40;;
64684;SDS011;51109;47.414;18.954;2022-08-19T05:16:18;12.90;;;7.80;;
64684;SDS011;51109;47.414;18.954;2022-08-19T05:18:45;13.95;;;7.68;;
64684;SDS011;51109;47.414;18.954;2022-08-19T05:21:30;9.07;;;7.20;;
64684;SDS011;51109;47.414;18.954;2022-08-19T05:24:16;8.80;;;6.88;;
64684;SDS011;51109;47.414;18.954;2022-08-19T05:26:45;8.60;;;7.47;;
64684;SDS011;51109;47.414;18.954;2022-08-19T05:29:13;10.07;;;6.88;;
64684;SDS011;51109;47.414;18.954;2022-08-19T05:31:41;10.48;;;7.93;;
64684;SDS011;51109;47.414;18.954;2022-08-19T05:34:07;9.15;;;8.25;;
64684;SDS011;51109;47.414;18.954;2022-08-19T05:36:38;11.60;;;7.28;;
64684;SDS011;51109;47.414;18.954;2022-08-19T05:39:07;8.70;;;6.70;;
64684;SDS011;51109;47.414;18.954;2022-08-19T05:41:37;10.23;;;7.50;;
64684;SDS011;51109;47.414;18.954;2022-08-19T05:44:18;8.40;;;7.10;;
64684;SDS011;51109;47.414;18.954;2022-08-19T05:46:45;8.15;;;6.60;;
64684;SDS011;51109;47.414;18.954;2022-08-19T05:49:12;10.52;;;7.35;;
64684;SDS011;51109;47.414;18.954;2022-08-19T05:51:38;9.00;;;7.20;;
64684;SDS011;51109;47.414;18.954;2022-08-19T05:54:05;8.48;;;6.97;;
64684;SDS011;51109;47.414;18.954;2022-08-19T05:56:32;8.15;;;6.70;;
64684;SDS011;51109;47.414;18.954;2022-08-19T05:59:02;10.05;;;6.90;;
64684;SDS011;51109;47.414;18.954;2022-08-19T06:01:29;10.20;;;7.30;;
64684;SDS011;51109;47.414;18.954;2022-08-19T06:03:55;8.68;;;6.82;;
64684;SDS011;51109;47.414;18.954;2022-08-19T06:06:20;8.73;;;6.82;;
64684;SDS011;51109;47.414;18.954;2022-08-19T06:08:46;12.40;;;7.50;;
64684;SDS011;51109;47.414;18.954;2022-08-19T06:11:23;10.77;;;6.78;;
64684;SDS011;51109;47.414;18.954;2022-08-19T06:13:59;15.63;;;7.60;;
64684;SDS011;51109;47.414;18.954;2022-08-19T06:16:28;7.82;;;6.47;;
64684;SDS011;51109;47.414;18.954;2022-08-19T06:18:58;10.00;;;6.85;;
64684;SDS011;51109;47.414;18.954;2022-08-19T06:21:26;9.30;;;6.95;;
64684;SDS011;51109;47.414;18.954;2022-08-19T06:23:53;7.45;;;6.43;;
64684;SDS011;51109;47.414;18.954;2022-08-19T06:26:21;11.20;;;6.70;;
64684;SDS011;51109;47.414;18.954;2022-08-19T06:28:47;11.27;;;7.18;;
64684;SDS011;51109;47.414;18.954;2022-08-19T06:31:17;11.15;;;7.35;;
64684;SDS011;51109;47.414;18.954;2022-08-19T06:33:46;10.95;;;6.78;;
64684;SDS011;51109;47.414;18.954;2022-08-19T06:36:26;7.07;;;6.40;;
64684;SDS011;51109;47.414;18.954;2022-08-19T06:38:57;11.55;;;6.63;;
64684;SDS011;51109;47.414;18.954;2022-08-19T06:41:24;12.38;;;6.78;;
64684;SDS011;51109;47.414;18.954;2022-08-19T06:43:51;13.75;;;6.72;;
64684;SDS011;51109;47.414;18.954;2022-08-19T06:46:17;9.90;;;6.55;;
64684;SDS011;51109;47.414;18.954;2022-08-19T06:48:45;9.20;;;6.30;;
64684;SDS011;51109;47.414;18.954;2022-08-19T06:51:13;8.90;;;6.03;;
64684;SDS011;51109;47.414;18.954;2022-08-19T06:53:49;10.52;;;6.35;;
64684;SDS011;51109;47.414;18.954;2022-08-19T06:56:17;9.45;;;6.57;;
64684;SDS011;51109;47.414;18.954;2022-08-19T06:58:47;10.85;;;6.80;;
64684;SDS011;51109;47.414;18.954;2022-08-19T07:01:15;8.20;;;6.10;;
64684;SDS011;51109;47.414;18.954;2022-08-19T07:03:41;9.27;;;6.28;;
64684;SDS011;51109;47.414;18.954;2022-08-19T07:06:10;10.02;;;6.22;;
64684;SDS011;51109;47.414;18.954;2022-08-19T07:08:39;7.68;;;6.05;;
64684;SDS011;51109;47.414;18.954;2022-08-19T07:11:08;8.63;;;6.13;;
64684;SDS011;51109;47.414;18.954;2022-08-19T07:13:35;8.68;;;6.05;;
64684;SDS011;51109;47.414;18.954;2022-08-19T07:16:06;9.93;;;6.43;;
64684;SDS011;51109;47.414;18.954;2022-08-19T07:18:34;10.60;;;6.50;;
64684;SDS011;51109;47.414;18.954;2022-08-19T07:21:09;11.02;;;6.10;;
64684;SDS011;51109;47.414;18.954;2022-08-19T07:23:45;10.68;;;6.13;;
64684;SDS011;51109;47.414;18.954;2022-08-19T07:26:30;10.07;;;6.10;;
64684;SDS011;51109;47.414;18.954;2022-08-19T07:28:58;7.22;;;5.53;;
64684;SDS011;51109;47.414;18.954;2022-08-19T07:31:27;13.70;;;5.47;;
64684;SDS011;51109;47.414;18.954;2022-08-19T07:33:54;7.85;;;5.95;;
64684;SDS011;51109;47.414;18.954;2022-08-19T07:36:22;11.70;;;6.05;;
64684;SDS011;51109;47.414;18.954;2022-08-19T07:38:51;10.05;;;5.88;;
64684;SDS011;51109;47.414;18.954;2022-08-19T07:41:22;7.65;;;5.68;;
64684;SDS011;51109;47.414;18.954;2022-08-19T07:43:49;6.07;;;5.47;;
64684;SDS011;51109;47.414;18.954;2022-08-19T07:46:16;6.63;;;5.93;;
64684;SDS011;51109;47.414;18.954;2022-08-19T07:48:43;6.28;;;5.68;;
64684;SDS011;51109;47.414;18.954;2022-08-19T07:51:14;7.32;;;5.15;;
64684;SDS011;51109;47.414;18.954;2022-08-19T07:53:45;9.18;;;5.88;;
64684;SDS011;51109;47.414;18.954;2022-08-19T07:56:13;9.13;;;6.80;;
64684;SDS011;51109;47.414;18.954;2022-08-19T07:58:42;12.23;;;5.55;;
64684;SDS011;51109;47.414;18.954;2022-08-19T08:01:11;13.15;;;6.30;;
64684;SDS011;51109;47.414;18.954;2022-08-19T08:03:39;6.65;;;5.55;;
64684;SDS011;51109;47.414;18.954;2022-08-19T08:06:24;10.32;;;5.93;;
64684;SDS011;51109;47.414;18.954;2022-08-19T08:09:10;11.63;;;5.57;;
64684;SDS011;51109;47.414;18.954;2022-08-19T08:11:41;8.40;;;5.80;;
64684;SDS011;51109;47.414;18.954;2022-08-19T08:14:20;9.93;;;6.00;;
64684;SDS011;51109;47.414;18.954;2022-08-19T08:16:49;7.25;;;5.85;;
64684;SDS011;51109;47.414;18.954;2022-08-19T08:19:17;6.88;;;5.25;;
64684;SDS011;51109;47.414;18.954;2022-08-19T08:21:44;8.23;;;6.30;;
64684;SDS011;51109;47.414;18.954;2022-08-19T08:24:10;10.40;;;5.97;;
64684;SDS011;51109;47.414;18.954;2022-08-19T08:26:37;7.72;;;5.68;;
64684;SDS011;51109;47.414;18.954;2022-08-19T08:29:04;7.03;;;5.43;;
64684;SDS011;51109;47.414;18.954;2022-08-19T08:31:30;8.80;;;5.70;;
64684;SDS011;51109;47.414;18.954;2022-08-19T08:33:56;13.23;;;5.95;;
64684;SDS011;51109;47.414;18.954;2022-08-19T08:36:21;6.90;;;5.55;;
64684;SDS011;51109;47.414;18.954;2022-08-19T08:38:49;7.72;;;5.47;;
64684;SDS011;51109;47.414;18.954;2022-08-19T08:44:05;8.63;;;5.60;;
64684;SDS011;51109;47.414;18.954;2022-08-19T08:46:39;7.35;;;5.78;;
64684;SDS011;51109;47.414;18.954;2022-08-19T08:52:02;7.05;;;5.20;;
64684;SDS011;51109;47.414;18.954;2022-08-19T08:54:36;9.18;;;6.10;;
64684;SDS011;51109;47.414;18.954;2022-08-19T08:57:07;7.07;;;5.57;;
64684;SDS011;51109;47.414;18.954;2022-08-19T08:59:57;7.28;;;5.15;;
64684;SDS011;51109;47.414;18.954;2022-08-19T09:02:26;6.57;;;4.82;;
64684;SDS011;51109;47.414;18.954;2022-08-19T09:04:51;10.77;;;5.22;;
64684;SDS011;51109;47.414;18.954;2022-08-19T09:07:28;7.20;;;5.75;;
64684;SDS011;51109;47.414;18.954;2022-08-19T09:10:08;9.25;;;5.28;;
64684;SDS011;51109;47.414;18.954;2022-08-19T09:12:45;10.40;;;5.95;;
64684;SDS011;51109;47.414;18.954;2022-08-19T09:15:32;5.80;;;5.10;;
64684;SDS011;51109;47.414;18.954;2022-08-19T09:18:04;6.78;;;5.47;;
64684;SDS011;51109;47.414;18.954;2022-08-19T09:20:31;6.85;;;5.63;;
64684;SDS011;51109;47.414;18.954;2022-08-19T09:22:57;9.38;;;5.20;;
64684;SDS011;51109;47.414;18.954;2022-08-19T09:25:23;7.28;;;5.22;;
64684;SDS011;51109;47.414;18.954;2022-08-19T09:27:50;9.23;;;5.43;;
64684;SDS011;51109;47.414;18.954;2022-08-19T09:30:25;5.88;;;5.22;;
64684;SDS011;51109;47.414;18.954;2022-08-19T09:32:53;11.57;;;5.63;;
64684;SDS011;51109;47.414;18.954;2022-08-19T09:35:20;9.15;;;5.47;;
64684;SDS011;51109;47.414;18.954;2022-08-19T09:37:48;9.13;;;5.65;;
64684;SDS011;51109;47.414;18.954;2022-08-19T09:40:15;6.55;;;5.15;;
64684;SDS011;51109;47.414;18.954;2022-08-19T09:42:45;7.13;;;5.38;;
64684;SDS011;51109;47.414;18.954;2022-08-19T09:45:13;9.65;;;6.18;;
64684;SDS011;51109;47.414;18.954;2022-08-19T09:47:40;6.43;;;5.72;;
64684;SDS011;51109;47.414;18.954;2022-08-19T09:50:07;6.55;;;5.90;;
64684;SDS011;51109;47.414;18.954;2022-08-19T09:52:36;10.77;;;6.00;;
64684;SDS011;51109;47.414;18.954;2022-08-19T09:55:05;6.95;;;6.15;;
64684;SDS011;51109;47.414;18.954;2022-08-19T09:57:32;7.93;;;5.50;;
64684;SDS011;51109;47.414;18.954;2022-08-19T09:59:58;7.47;;;5.85;;
64684;SDS011;51109;47.414;18.954;2022-08-19T10:02:25;8.15;;;5.38;;
64684;SDS011;51109;47.414;18.954;2022-08-19T10:04:51;8.45;;;5.03;;
64684;SDS011;51109;47.414;18.954;2022-08-19T10:07:36;7.15;;;5.75;;
64684;SDS011;51109;47.414;18.954;2022-08-19T10:10:03;7.18;;;5.78;;
64684;SDS011;51109;47.414;18.954;2022-08-19T10:12:31;9.45;;;5.45;;
64684;SDS011;51109;47.414;18.954;2022-08-19T10:14:58;7.40;;;5.53;;
64684;SDS011;51109;47.414;18.954;2022-08-19T10:17:25;6.15;;;5.30;;
64684;SDS011;51109;47.414;18.954;2022-08-19T10:19:51;7.05;;;5.28;;
64684;SDS011;51109;47.414;18.954;2022-08-19T10:22:18;8.38;;;5.38;;
64684;SDS011;51109;47.414;18.954;2022-08-19T10:24:45;9.05;;;5.30;;
64684;SDS011;51109;47.414;18.954;2022-08-19T10:27:11;6.45;;;5.82;;
64684;SDS011;51109;47.414;18.954;2022-08-19T10:29:39;7.40;;;5.40;;
64684;SDS011;51109;47.414;18.954;2022-08-19T10:32:06;7.28;;;5.18;;
64684;SDS011;51109;47.414;18.954;2022-08-19T10:34:34;10.07;;;5.70;;
64684;SDS011;51109;47.414;18.954;2022-08-19T10:37:02;8.27;;;5.30;;
64684;SDS011;51109;47.414;18.954;2022-08-19T10:39:34;8.65;;;5.35;;
64684;SDS011;51109;47.414;18.954;2022-08-19T10:42:05;7.22;;;6.28;;
64684;SDS011;51109;47.414;18.954;2022-08-19T10:44:32;10.52;;;5.88;;
64684;SDS011;51109;47.414;18.954;2022-08-19T10:47:00;5.93;;;5.32;;
64684;SDS011;51109;47.414;18.954;2022-08-19T10:49:27;7.55;;;5.60;;
64684;SDS011;51109;47.414;18.954;2022-08-19T10:51:53;5.88;;;5.28;;
64684;SDS011;51109;47.414;18.954;2022-08-19T10:54:38;9.70;;;6.03;;
64684;SDS011;51109;47.414;18.954;2022-08-19T10:57:22;7.32;;;5.50;;
64684;SDS011;51109;47.414;18.954;2022-08-19T10:59:55;7.85;;;6.20;;
64684;SDS011;51109;47.414;18.954;2022-08-19T11:02:21;9.30;;;7.85;;
64684;SDS011;51109;47.414;18.954;2022-08-19T11:04:47;11.40;;;8.85;;
64684;SDS011;51109;47.414;18.954;2022-08-19T11:07:14;11.43;;;7.57;;
64684;SDS011;51109;47.414;18.954;2022-08-19T11:09:41;9.48;;;6.65;;
64684;SDS011;51109;47.414;18.954;2022-08-19T11:12:08;11.43;;;10.20;;
64684;SDS011;51109;47.414;18.954;2022-08-19T11:14:35;15.80;;;13.68;;
64684;SDS011;51109;47.414;18.954;2022-08-19T11:17:03;16.27;;;14.15;;
64684;SDS011;51109;47.414;18.954;2022-08-19T11:19:30;21.63;;;18.25;;
64684;SDS011;51109;47.414;18.954;2022-08-19T11:21:56;19.60;;;17.15;;
64684;SDS011;51109;47.414;18.954;2022-08-19T11:24:27;17.88;;;15.05;;
64684;SDS011;51109;47.414;18.954;2022-08-19T11:26:54;15.23;;;13.40;;
64684;SDS011;51109;47.414;18.954;2022-08-19T11:29:27;14.45;;;11.20;;
64684;SDS011;51109;47.414;18.954;2022-08-19T11:31:54;10.52;;;9.43;;
64684;SDS011;51109;47.414;18.954;2022-08-19T11:34:21;12.88;;;10.02;;
64684;SDS011;51109;47.414;18.954;2022-08-19T11:36:51;15.85;;;10.82;;
64684;SDS011;51109;47.414;18.954;2022-08-19T11:39:18;13.43;;;12.07;;
64684;SDS011;51109;47.414;18.954;2022-08-19T11:41:45;22.75;;;14.20;;
64684;SDS011;51109;47.414;18.954;2022-08-19T11:44:12;18.90;;;14.25;;
64684;SDS011;51109;47.414;18.954;2022-08-19T11:46:39;15.30;;;13.48;;
64684;SDS011;51109;47.414;18.954;2022-08-19T11:49:06;16.27;;;13.32;;
64684;SDS011;51109;47.414;18.954;2022-08-19T11:51:34;17.13;;;13.60;;
64684;SDS011;51109;47.414;18.954;2022-08-19T11:54:00;15.13;;;13.60;;
64684;SDS011;51109;47.414;18.954;2022-08-19T11:56:27;16.15;;;13.57;;
64684;SDS011;51109;47.414;18.954;2022-08-19T11:58:54;17.77;;;12.95;;
64684;SDS011;51109;47.414;18.954;2022-08-19T12:01:22;15.07;;;12.63;;
64684;SDS011;51109;47.414;18.954;2022-08-19T12:03:50;21.60;;;12.63;;
64684;SDS011;51109;47.414;18.954;2022-08-19T12:06:19;14.05;;;10.02;;
64684;SDS011;51109;47.414;18.954;2022-08-19T12:08:50;12.15;;;10.45;;
64684;SDS011;51109;47.414;18.954;2022-08-19T12:11:17;17.50;;;10.38;;
64684;SDS011;51109;47.414;18.954;2022-08-19T12:13:43;10.95;;;9.30;;
64684;SDS011;51109;47.414;18.954;2022-08-19T12:16:17;12.32;;;9.95;;
64684;SDS011;51109;47.414;18.954;2022-08-19T12:18:45;14.98;;;10.02;;
64684;SDS011;51109;47.414;18.954;2022-08-19T12:21:12;15.15;;;11.27;;
64684;SDS011;51109;47.414;18.954;2022-08-19T12:23:40;12.82;;;8.38;;
64684;SDS011;51109;47.414;18.954;2022-08-19T12:26:08;10.35;;;6.65;;
64684;SDS011;51109;47.414;18.954;2022-08-19T12:28:35;7.00;;;5.35;;
64684;SDS011;51109;47.414;18.954;2022-08-19T12:31:01;11.52;;;5.57;;
64684;SDS011;51109;47.414;18.954;2022-08-19T12:33:28;12.15;;;6.28;;
64684;SDS011;51109;47.414;18.954;2022-08-19T12:35:54;11.77;;;5.65;;
64684;SDS011;51109;47.414;18.954;2022-08-19T12:38:24;9.43;;;4.70;;
64684;SDS011;51109;47.414;18.954;2022-08-19T12:40:50;7.10;;;4.70;;
64684;SDS011;51109;47.414;18.954;2022-08-19T12:43:19;6.65;;;5.38;;
64684;SDS011;51109;47.414;18.954;2022-08-19T12:45:45;9.95;;;4.60;;
64684;SDS011;51109;47.414;18.954;2022-08-19T12:48:12;9.85;;;4.75;;
64684;SDS011;51109;47.414;18.954;2022-08-19T12:50:39;10.25;;;4.55;;
64684;SDS011;51109;47.414;18.954;2022-08-19T12:53:06;6.72;;;4.30;;
64684;SDS011;51109;47.414;18.954;2022-08-19T12:55:32;7.55;;;3.90;;
64684;SDS011;51109;47.414;18.954;2022-08-19T12:57:57;9.25;;;4.88;;
64684;SDS011;51109;47.414;18.954;2022-08-19T13:00:26;6.95;;;4.35;;
64684;SDS011;51109;47.414;18.954;2022-08-19T13:02:53;8.90;;;3.97;;
64684;SDS011;51109;47.414;18.954;2022-08-19T13:05:23;7.18;;;4.70;;
64684;SDS011;51109;47.414;18.954;2022-08-19T13:07:52;7.10;;;4.25;;
64684;SDS011;51109;47.414;18.954;2022-08-19T13:10:21;11.63;;;5.05;;
64684;SDS011;51109;47.414;18.954;2022-08-19T13:12:48;8.70;;;4.38;;
64684;SDS011;51109;47.414;18.954;2022-08-19T13:15:16;6.65;;;3.90;;
64684;SDS011;51109;47.414;18.954;2022-08-19T13:17:46;5.53;;;3.88;;
64684;SDS011;51109;47.414;18.954;2022-08-19T13:20:17;8.70;;;4.10;;
64684;SDS011;51109;47.414;18.954;2022-08-19T13:22:46;7.40;;;4.70;;
64684;SDS011;51109;47.414;18.954;2022-08-19T13:25:13;8.40;;;4.95;;
64684;SDS011;51109;47.414;18.954;2022-08-19T13:27:42;9.07;;;4.97;;
64684;SDS011;51109;47.414;18.954;2022-08-19T13:30:16;13.40;;;4.20;;
64684;SDS011;51109;47.414;18.954;2022-08-19T13:33:02;12.93;;;4.70;;
64684;SDS011;51109;47.414;18.954;2022-08-19T13:35:37;13.45;;;4.43;;
64684;SDS011;51109;47.414;18.954;2022-08-19T13:38:04;13.02;;;4.00;;
64684;SDS011;51109;47.414;18.954;2022-08-19T13:40:31;10.35;;;4.43;;
64684;SDS011;51109;47.414;18.954;2022-08-19T13:43:02;9.13;;;4.53;;
64684;SDS011;51109;47.414;18.954;2022-08-19T13:45:30;13.32;;;4.28;;
64684;SDS011;51109;47.414;18.954;2022-08-19T13:48:02;18.25;;;4.32;;
64684;SDS011;51109;47.414;18.954;2022-08-19T13:50:33;15.73;;;3.67;;
64684;SDS011;51109;47.414;18.954;2022-08-19T13:53:10;17.10;;;4.32;;
64684;SDS011;51109;47.414;18.954;2022-08-19T13:55:37;16.75;;;3.75;;
64684;SDS011;51109;47.414;18.954;2022-08-19T13:58:04;19.13;;;4.57;;
64684;SDS011;51109;47.414;18.954;2022-08-19T14:00:32;15.35;;;4.05;;
64684;SDS011;51109;47.414;18.954;2022-08-19T14:03:02;16.33;;;4.82;;
64684;SDS011;51109;47.414;18.954;2022-08-19T14:05:29;16.02;;;3.67;;
64684;SDS011;51109;47.414;18.954;2022-08-19T14:07:56;15.60;;;4.78;;
64684;SDS011;51109;47.414;18.954;2022-08-19T14:10:23;14.77;;;3.92;;
64684;SDS011;51109;47.414;18.954;2022-08-19T14:12:54;9.57;;;3.20;;
64684;SDS011;51109;47.414;18.954;2022-08-19T14:15:21;9.43;;;3.85;;
64684;SDS011;51109;47.414;18.954;2022-08-19T14:17:48;16.35;;;3.95;;
64684;SDS011;51109;47.414;18.954;2022-08-19T14:20:15;11.63;;;3.33;;
64684;SDS011;51109;47.414;18.954;2022-08-19T14:22:41;12.52;;;4.25;;
64684;SDS011;51109;47.414;18.954;2022-08-19T14:25:09;12.77;;;3.90;;
64684;SDS011;51109;47.414;18.954;2022-08-19T14:27:37;20.35;;;4.35;;
64684;SDS011;51109;47.414;18.954;2022-08-19T14:30:05;10.45;;;3.17;;
64684;SDS011;51109;47.414;18.954;2022-08-19T14:32:33;16.33;;;4.22;;
64684;SDS011;51109;47.414;18.954;2022-08-19T14:34:59;12.73;;;3.53;;
64684;SDS011;51109;47.414;18.954;2022-08-19T14:37:26;17.15;;;2.88;;
64684;SDS011;51109;47.414;18.954;2022-08-19T14:39:52;8.00;;;2.67;;
64684;SDS011;51109;47.414;18.954;2022-08-19T14:42:18;10.45;;;2.17;;
64684;SDS011;51109;47.414;18.954;2022-08-19T14:44:44;12.00;;;2.72;;